Neelyton, Pennsylvania
Current Conditions -  °F | °C
As of 10:53 PM on Friday 28 Nov 2014 (Local Time) from KAOO Reporting Station
Clear Clear  
Wind Chill: 16°   Ceiling: Unl
Heat Index: 23°   Visibility: 10mi
Dew Point: 15°   Wind: 6mph
Humidity: 72%   Direction: 200°SSW
Pressure: 30.19"   Gusts: NA
Location:  40.16°N, 77.82°W
Report Text: KAOO 290353Z AUTO 20005KT 10SM CLR M05/M09 A3019 RMK AO2 SLP245 T10501094
Loading
Personal Weather Stations






























Interactive Weather Map New forecast layout! Learn more

10-Day Weather Forecast

Advertisements
Track Severe Weather on mobile